Dades meteomassalio
Diari Summary for Gener 17, 2017 Units:  Metric    English   Both
« Previous Day
Next Day »
Diari Semanal Mensual Anual Personalitzat
  Maxima: Minima: Mijana:
Temperatura: -17.8 °C -17.9 °C -15.1 °C
Rosada: -17.8 °C -24.8 °C -20.1 °C
Humitat: Humidity % 25 % 54 %
Velocitat del vent: 0 km/h 26.9 km/h 55.8 km/h
Racha vent: 0 km/h - -
Vent:- - NW
Pressio: 0 hPa 34361.1 hPa -
Pluja: 0 mm    
Historical Graphs
 
 
Tabular Data for Gener 17, 2017
Time Temperature Dew Point Pressure Wind Wind Speed Wind Gust Humidity Rainfall Rate (Hourly) solar Conditions
-17.8 °C -17.8 °C 0 hPa Calm     Humidity % 0 mm SolarRadiationWatts/m^2 W/m2 Conditions
00:01 -13.3 °C -15.2 °C 34418.7 hPa NW 71.5 km/h 71.5 km/h 79 % 0 mm 0.0 W/m2 CLR
00:06 -13.3 °C -15.2 °C 34428.8 hPa NW 56.6 km/h 56.6 km/h 79 % 0 mm 0.0 W/m2 CLR
00:11 -13.3 °C -15.2 °C 34428.8 hPa NW 68.6 km/h 68.6 km/h 79 % 0 mm 0.0 W/m2 CLR
00:16 -13.3 °C -15.3 °C 34418.7 hPa NW 67.3 km/h 67.3 km/h 78 % 0 mm 0.0 W/m2 CLR
00:21 -13.3 °C -15.3 °C 34418.7 hPa NW 62.6 km/h 62.6 km/h 78 % 0 mm 0.0 W/m2 CLR
00:26 -13.3 °C -15.3 °C 34418.7 hPa NW 68.6 km/h 68.6 km/h 78 % 0 mm 0.0 W/m2 CLR
00:31 -13.3 °C -15.3 °C 34418.7 hPa NW 50.7 km/h 50.7 km/h 78 % 0 mm 0.0 W/m2 CLR
00:36 -13.3 °C -15.3 °C 34418.7 hPa NW 56.6 km/h 56.6 km/h 78 % 0 mm 0.0 W/m2 CLR
00:41 -13.2 °C -15.3 °C 34418.7 hPa NW 71.5 km/h 71.5 km/h 77 % 0 mm 0.0 W/m2 CLR
00:46 -13.2 °C -15.4 °C 34418.7 hPa NW 71.5 km/h 71.5 km/h 76 % 0 mm 0.0 W/m2 CLR
00:51 -13.2 °C -15.4 °C 34418.7 hPa NW 101.2 km/h 101.2 km/h 76 % 0 mm 0.0 W/m2
00:56 -13.2 °C -15.4 °C 34405.1 hPa NW 68.6 km/h 68.6 km/h 75 % 0 mm 0.0 W/m2 CLR
01:01 -13.2 °C -15.5 °C 34418.7 hPa NNW 67.3 km/h 67.3 km/h 75 % 0 mm 0.0 W/m2 CLR
01:06 -13.2 °C -15.5 °C 34418.7 hPa NNW 98.3 km/h 98.3 km/h 75 % 0 mm 0.0 W/m2 CLR
01:11 -13.2 °C -15.5 °C 34405.1 hPa NNW 74.5 km/h 74.5 km/h 75 % 0 mm 0.0 W/m2 CLR
01:16 -13.2 °C -15.5 °C 34405.1 hPa NW 62.6 km/h 62.6 km/h 75 % 0 mm 0.0 W/m2 CLR
01:21 -13.2 °C -15.5 °C 34418.7 hPa NW 69.8 km/h 69.8 km/h 75 % 0 mm 0.0 W/m2 CLR
01:26 -13.2 °C -15.6 °C 34405.1 hPa NNW 80.5 km/h 80.5 km/h 74 % 0 mm 0.0 W/m2 CLR
01:31 -13.2 °C -15.6 °C 34405.1 hPa NNW 68.6 km/h 68.6 km/h 74 % 0 mm 0.0 W/m2 CLR
01:36 -13.2 °C -15.6 °C 34405.1 hPa NW 68.6 km/h 68.6 km/h 74 % 0 mm 0.0 W/m2 CLR
01:41 -13.2 °C -15.6 °C 34405.1 hPa NW 72.6 km/h 72.6 km/h 74 % 0 mm 0.0 W/m2 CLR
01:46 -13.2 °C -15.6 °C 34405.1 hPa NW 69.8 km/h 69.8 km/h 74 % 0 mm 0.0 W/m2 CLR
01:51 -13.1 °C -15.7 °C 34405.1 hPa NNW 80.5 km/h 80.5 km/h 73 % 0 mm 0.0 W/m2 CLR
01:56 -13.1 °C -15.7 °C 34405.1 hPa NNW 57 km/h 57 km/h 73 % 0 mm 0.0 W/m2 CLR
02:01 -13.2 °C -15.7 °C 34395 hPa NNW 68.6 km/h 68.6 km/h 73 % 0 mm 0.0 W/m2 CLR
02:06 -13.2 °C -15.7 °C 34395 hPa NNW 72.6 km/h 72.6 km/h 73 % 0 mm 0.0 W/m2 CLR
02:11 -13.1 °C -15.7 °C 34384.8 hPa NW 93.2 km/h 93.2 km/h 73 % 0 mm 0.0 W/m2 CLR
02:16 -13.1 °C -15.7 °C 34395 hPa NW 68.6 km/h 68.6 km/h 73 % 0 mm 0.0 W/m2 CLR
02:21 -13.1 °C -15.7 °C 34395 hPa NNW 86.4 km/h 86.4 km/h 73 % 0 mm 0.0 W/m2 CLR
02:26 -13.1 °C -15.7 °C 34395 hPa NW 83.4 km/h 83.4 km/h 73 % 0 mm 0.0 W/m2 CLR
02:31 -13.2 °C -15.7 °C 34395 hPa NW 71.5 km/h 71.5 km/h 73 % 0 mm 0.0 W/m2 CLR
02:36 -13.2 °C -15.7 °C 34395 hPa NW 95.3 km/h 95.3 km/h 73 % 0 mm 0.0 W/m2 CLR
02:41 -13.1 °C -15.7 °C 34395 hPa NW 80.3 km/h 80.3 km/h 73 % 0 mm 0.0 W/m2 CLR
02:46 -13.1 °C -15.8 °C 34395 hPa NNW 77.4 km/h 77.4 km/h 72 % 0 mm 0.0 W/m2 CLR
02:51 -13.1 °C -15.7 °C 34395 hPa NNW 80.5 km/h 80.5 km/h 72 % 0 mm 0.0 W/m2 CLR
02:56 -13.1 °C -15.7 °C 34384.8 hPa NNW 89.3 km/h 89.3 km/h 72 % 0 mm 0.0 W/m2 CLR
03:01 -13.1 °C -15.7 °C 34395 hPa NNW 89.3 km/h 89.3 km/h 73 % 0 mm 0.0 W/m2 CLR
03:06 -13.2 °C -15.7 °C 34384.8 hPa NW 77.4 km/h 77.4 km/h 73 % 0 mm 0.0 W/m2 CLR
03:11 -13.1 °C -15.7 °C 34384.8 hPa NW 77.4 km/h 77.4 km/h 73 % 0 mm 0.0 W/m2
03:16 -13.2 °C -15.7 °C 34384.8 hPa NNW 72.6 km/h 72.6 km/h 73 % 0 mm 0.0 W/m2 CLR
03:21 -13.2 °C -15.7 °C 34384.8 hPa NNW 80.5 km/h 80.5 km/h 73 % 0 mm 0.0 W/m2 CLR
03:26 -13.2 °C -15.7 °C 34384.8 hPa NNW 86.4 km/h 86.4 km/h 73 % 0 mm 0.0 W/m2 CLR
03:31 -13.2 °C -15.7 °C 34371.3 hPa NNW 68.6 km/h 68.6 km/h 73 % 0 mm 0.0 W/m2 CLR
03:36 -13.2 °C -15.7 °C 34371.3 hPa NNW 95.3 km/h 95.3 km/h 73 % 0 mm 0.0 W/m2 CLR
03:41 -13.2 °C -15.7 °C 34371.3 hPa NNW 80.5 km/h 80.5 km/h 73 % 0 mm 0.0 W/m2 CLR
03:46 -13.2 °C -15.7 °C 34361.1 hPa NNW 89.3 km/h 89.3 km/h 73 % 0 mm 0.0 W/m2 CLR
03:51 -13.2 °C -15.8 °C 34361.1 hPa NW 77.4 km/h 77.4 km/h 73 % 0 mm 0.0 W/m2 CLR
03:56 -13.3 °C -15.8 °C 34361.1 hPa NNW 89.3 km/h 89.3 km/h 73 % 0 mm 0.0 W/m2
04:01 -13.3 °C -15.8 °C 34361.1 hPa NNW 80.5 km/h 80.5 km/h 73 % 0 mm 0.0 W/m2 CLR
04:06 -13.3 °C -15.8 °C 34361.1 hPa NW 77.4 km/h 77.4 km/h 73 % 0 mm 0.0 W/m2 CLR
04:11 -13.4 °C -15.9 °C 34361.1 hPa NW 62.6 km/h 62.6 km/h 73 % 0 mm 0.0 W/m2 CLR
04:16 -13.4 °C -15.9 °C 34361.1 hPa NNW 72.6 km/h 72.6 km/h 73 % 0 mm 0.0 W/m2 CLR
04:21 -13.4 °C -15.9 °C 34361.1 hPa NNW 74.5 km/h 74.5 km/h 73 % 0 mm 0.0 W/m2 CLR
04:26 -13.4 °C -16 °C 34361.1 hPa NNW 86.4 km/h 86.4 km/h 72 % 0 mm 0.0 W/m2 CLR
04:31 -13.4 °C -16.1 °C 34361.1 hPa NNW 69.8 km/h 69.8 km/h 72 % 0 mm 0.0 W/m2 CLR
04:36 -13.4 °C -16.1 °C 34361.1 hPa NNW 80.5 km/h 80.5 km/h 72 % 0 mm 0.0 W/m2 CLR
04:41 -13.5 °C -16.1 °C 34361.1 hPa NNW 68.6 km/h 68.6 km/h 72 % 0 mm 0.0 W/m2 CLR
04:46 -13.5 °C -16.1 °C 34361.1 hPa NNW 89.3 km/h 89.3 km/h 72 % 0 mm 0.0 W/m2
04:51 -13.5 °C -16.2 °C 34361.1 hPa NW 86.4 km/h 86.4 km/h 72 % 0 mm 0.0 W/m2 CLR
04:56 -13.6 °C -16.3 °C 34371.3 hPa NW 62.6 km/h 62.6 km/h 71 % 0 mm 0.0 W/m2 CLR
04:57 -13.6 °C -16.2 °C 34371.3 hPa NW 62.6 km/h 62.6 km/h 72 % 0 mm 0.0 W/m2 CLR
05:02 -13.6 °C -16.3 °C 34371.3 hPa NW 89.3 km/h 89.3 km/h 71 % 0 mm 0.0 W/m2 CLR
05:07 -13.6 °C -16.3 °C 34371.3 hPa NW 54.4 km/h 54.4 km/h 71 % 0 mm 0.0 W/m2 CLR
05:12 -13.7 °C -16.4 °C 34384.8 hPa NW 54.4 km/h 54.4 km/h 71 % 0 mm 0.0 W/m2 CLR
05:17 -13.7 °C -16.4 °C 34371.3 hPa NNW 71.5 km/h 71.5 km/h 71 % 0 mm 0.0 W/m2 CLR
05:22 -13.8 °C -16.5 °C 34371.3 hPa NNW 62.6 km/h 62.6 km/h 71 % 0 mm 0.0 W/m2 CLR
05:27 -13.8 °C -16.6 °C 34384.8 hPa NNW 64.7 km/h 64.7 km/h 71 % 0 mm 0.0 W/m2 CLR
05:32 -13.8 °C -16.6 °C 34384.8 hPa NNW 59.5 km/h 59.5 km/h 71 % 0 mm 0.0 W/m2 CLR
05:37 -13.9 °C -16.6 °C 34384.8 hPa NW 67.3 km/h 67.3 km/h 72 % 0 mm 0.0 W/m2 CLR
05:42 -13.9 °C -16.6 °C 34384.8 hPa NW 75.2 km/h 75.2 km/h 72 % 0 mm 0.0 W/m2 CLR
05:47 -14 °C -16.6 °C 34384.8 hPa NW 67.3 km/h 67.3 km/h 72 % 0 mm 0.0 W/m2 CLR
05:52 -14 °C -16.6 °C 34384.8 hPa NNW 59.5 km/h 59.5 km/h 72 % 0 mm 0.0 W/m2 CLR
05:57 -14.1 °C -16.7 °C 34395 hPa NW 80.5 km/h 80.5 km/h 72 % 0 mm 0.0 W/m2 CLR
06:02 -14.2 °C -16.8 °C 34395 hPa NW 74.5 km/h 74.5 km/h 72 % 0 mm 0.0 W/m2 CLR
06:07 -14.2 °C -16.7 °C 34395 hPa NNW 59.5 km/h 59.5 km/h 73 % 0 mm 0.0 W/m2 CLR
06:12 -14.3 °C -16.8 °C 34395 hPa NNW 80.5 km/h 80.5 km/h 73 % 0 mm 0.0 W/m2 CLR
06:17 -14.4 °C -16.9 °C 34395 hPa NNW 62.6 km/h 62.6 km/h 73 % 0 mm 0.0 W/m2 CLR
06:22 -14.4 °C -16.9 °C 34405.1 hPa NNW 68.6 km/h 68.6 km/h 73 % 0 mm 0.0 W/m2 CLR
06:27 -14.4 °C -16.9 °C 34405.1 hPa NNW 68.6 km/h 68.6 km/h 73 % 0 mm 0.0 W/m2 CLR
06:32 -14.5 °C -17 °C 34405.1 hPa NW 65.5 km/h 65.5 km/h 73 % 0 mm 0.0 W/m2 CLR
06:37 -14.6 °C -17.1 °C 34405.1 hPa NW 74.5 km/h 74.5 km/h 73 % 0 mm 0.0 W/m2 CLR
06:43 -14.6 °C -17.1 °C 34405.1 hPa NW 74.5 km/h 74.5 km/h 73 % 0 mm 0.0 W/m2 CLR
06:48 -14.7 °C -17.1 °C 34418.7 hPa NW 74.5 km/h 74.5 km/h 73 % 0 mm 0.0 W/m2 CLR
06:53 -14.7 °C -17.2 °C 34418.7 hPa NW 68.6 km/h 68.6 km/h 73 % 0 mm 0.0 W/m2 CLR
06:58 -14.8 °C -17.2 °C 34418.7 hPa NNW 62.6 km/h 62.6 km/h 73 % 0 mm 0.0 W/m2 CLR
07:03 -14.8 °C -17.3 °C 34428.8 hPa NNW 62.6 km/h 62.6 km/h 73 % 0 mm 0.0 W/m2 CLR
07:08 -14.8 °C -17.3 °C 34442.4 hPa NNW 44.7 km/h 44.7 km/h 73 % 0 mm 0.0 W/m2 CLR
07:13 -14.9 °C -17.4 °C 34442.4 hPa NNW 47.6 km/h 47.6 km/h 73 % 0 mm 0.0 W/m2 CLR
07:18 -15 °C -17.4 °C 34452.6 hPa NNW 44.7 km/h 44.7 km/h 74 % 0 mm 0.0 W/m2 CLR
07:23 -15.1 °C -17.4 °C 34452.6 hPa NNW 41.7 km/h 41.7 km/h 74 % 0 mm 0.0 W/m2 CLR
07:28 -15.1 °C -17.4 °C 34462.7 hPa NNW 44.7 km/h 44.7 km/h 74 % 0 mm 0.0 W/m2 CLR
07:33 -15.2 °C -17.5 °C 34462.7 hPa North 38.8 km/h 38.8 km/h 74 % 0 mm 0.0 W/m2 CLR
07:38 -15.2 °C -17.6 °C 34462.7 hPa NNW 41.7 km/h 41.7 km/h 74 % 0 mm 0.0 W/m2 CLR
07:43 -15.3 °C -17.6 °C 34462.7 hPa NNW 38.8 km/h 38.8 km/h 74 % 0 mm 0.0 W/m2 CLR
07:48 -15.4 °C -17.7 °C 34462.7 hPa NNW 38.8 km/h 38.8 km/h 74 % 0 mm 0.0 W/m2 CLR
07:53 -15.4 °C -17.8 °C 34462.7 hPa NNW 36.2 km/h 36.2 km/h 73 % 0 mm 0.0 W/m2 CLR
07:58 -15.4 °C -17.8 °C 34476.3 hPa NNW 50.7 km/h 50.7 km/h 73 % 0 mm 0.0 W/m2 CLR
08:03 -15.4 °C -18 °C 34476.3 hPa NNW 44.7 km/h 44.7 km/h 72 % 0 mm 0.0 W/m2 CLR
08:08 -15.5 °C -18.1 °C 34476.3 hPa NW 49.2 km/h 49.2 km/h 72 % 0 mm 0.0 W/m2 CLR
08:13 -15.5 °C -18.1 °C 34486.4 hPa NW 47.6 km/h 47.6 km/h 72 % 0 mm 0.0 W/m2 CLR
08:18 -15.6 °C -18.2 °C 34486.4 hPa NW 56.6 km/h 56.6 km/h 71 % 0 mm 0.0 W/m2 CLR
08:23 -15.7 °C -18.3 °C 34486.4 hPa NW 51.8 km/h 51.8 km/h 71 % 0 mm 5.0 W/m2 BKN
08:28 -15.7 °C -18.4 °C 34486.4 hPa NW 56.6 km/h 56.6 km/h 70 % 0 mm 7.0 W/m2 BKN
08:33 -15.7 °C -18.4 °C 34496.6 hPa NW 62.6 km/h 62.6 km/h 70 % 0 mm 9.0 W/m2 BKN
08:38 -15.8 °C -18.5 °C 34496.6 hPa NW 50.7 km/h 50.7 km/h 70 % 0 mm 11.0 W/m2 BKN
08:43 -15.8 °C -18.6 °C 34496.6 hPa NW 44.7 km/h 44.7 km/h 70 % 0 mm 12.0 W/m2 BKN
08:48 -15.8 °C -18.6 °C 34496.6 hPa NW 50.7 km/h 50.7 km/h 70 % 0 mm 14.0 W/m2 BKN
08:53 -15.9 °C -18.7 °C 34496.6 hPa NW 44.7 km/h 44.7 km/h 70 % 0 mm 25.0 W/m2 BKN
08:58 -15.9 °C -18.7 °C 34496.6 hPa NW 47.6 km/h 47.6 km/h 70 % 0 mm 37.0 W/m2 BKN
09:03 -15.9 °C -18.8 °C 34496.6 hPa NW 47.6 km/h 47.6 km/h 69 % 0 mm 37.0 W/m2 BKN
09:08 -15.9 °C -18.8 °C 34496.6 hPa NW 50.7 km/h 50.7 km/h 69 % 0 mm 47.0 W/m2 BKN
09:13 -15.9 °C -18.9 °C 34496.6 hPa NW 59.5 km/h 59.5 km/h 68 % 0 mm 58.0 W/m2 BKN
09:18 -15.9 °C -19 °C 34510.1 hPa NW 56.6 km/h 56.6 km/h 67 % 0 mm 72.0 W/m2 BKN
09:23 -15.9 °C -19 °C 34510.1 hPa NW 59.5 km/h 59.5 km/h 67 % 0 mm 79.0 W/m2 BKN
09:28 -15.9 °C -19.1 °C 34510.1 hPa NW 59.5 km/h 59.5 km/h 66 % 0 mm 100.0 W/m2 BKN
09:33 -15.9 °C -19.1 °C 34510.1 hPa NW 56.6 km/h 56.6 km/h 66 % 0 mm 113.0 W/m2 BKN
09:38 -15.9 °C -19.3 °C 34510.1 hPa NW 57 km/h 57 km/h 64 % 0 mm 114.0 W/m2 BKN
09:43 -15.8 °C -19.3 °C 34520.3 hPa NNW 50.7 km/h 50.7 km/h 64 % 0 mm 146.0 W/m2 BKN
09:48 -15.8 °C -19.4 °C 34510.1 hPa NW 47.6 km/h 47.6 km/h 63 % 0 mm 162.0 W/m2 BKN
09:53 -15.8 °C -19.3 °C 34520.3 hPa NW 47.6 km/h 47.6 km/h 63 % 0 mm 169.0 W/m2 SCT
09:58 -15.8 °C -19.6 °C 34520.3 hPa NW 50.7 km/h 50.7 km/h 61 % 0 mm 162.0 W/m2 SCT
10:03 -15.7 °C -19.5 °C 34520.3 hPa NW 62.6 km/h 62.6 km/h 61 % 0 mm 206.0 W/m2 BKN
10:08 -15.7 °C -19.6 °C 34520.3 hPa NW 50.7 km/h 50.7 km/h 60 % 0 mm 200.0 W/m2 SCT
10:13 -15.7 °C -19.6 °C 34520.3 hPa NW 47.6 km/h 47.6 km/h 60 % 0 mm 236.0 W/m2 SCT
10:18 -15.6 °C -19.6 °C 34533.8 hPa NW 50.7 km/h 50.7 km/h 59 % 0 mm 251.0 W/m2 SCT
10:24 -15.5 °C -19.6 °C 34533.8 hPa NW 41.7 km/h 41.7 km/h 59 % 0 mm 267.0 W/m2 SCT
10:29 -15.5 °C -19.7 °C 34533.8 hPa NW 50.7 km/h 50.7 km/h 58 % 0 mm 281.0 W/m2 SCT
10:34 -15.4 °C -19.8 °C 34533.8 hPa NW 38.8 km/h 38.8 km/h 57 % 0 mm 294.0 W/m2 SCT
10:39 -15.4 °C -19.8 °C 34533.8 hPa NW 35.7 km/h 35.7 km/h 56 % 0 mm 306.0 W/m2 FEW
10:44 -15.3 °C -19.9 °C 34533.8 hPa NW 53.6 km/h 53.6 km/h 55 % 0 mm 316.0 W/m2 FEW
10:49 -15.4 °C -20.1 °C 34533.8 hPa NW 44.7 km/h 44.7 km/h 54 % 0 mm 325.0 W/m2 FEW
10:54 -15.3 °C -20.1 °C 34544 hPa NW 41.7 km/h 41.7 km/h 54 % 0 mm 338.0 W/m2 FEW
10:59 -15.2 °C -19.9 °C 34533.8 hPa NW 49.2 km/h 49.2 km/h 54 % 0 mm 346.0 W/m2 FEW
11:04 -15.1 °C -20.2 °C 34533.8 hPa NW 44.7 km/h 44.7 km/h 52 % 0 mm 359.0 W/m2 FEW
11:09 -15.1 °C -20.1 °C 34533.8 hPa NW 44.7 km/h 44.7 km/h 52 % 0 mm 366.0 W/m2 FEW
11:14 -15.1 °C -20.4 °C 34533.8 hPa NW 41.7 km/h 41.7 km/h 50 % 0 mm 374.0 W/m2 FEW
11:19 -15 °C -20.3 °C 34533.8 hPa NW 47.6 km/h 47.6 km/h 50 % 0 mm 383.0 W/m2 FEW
11:24 -14.9 °C -20.3 °C 34533.8 hPa NW 44.7 km/h 44.7 km/h 50 % 0 mm 392.0 W/m2 FEW
11:29 -14.9 °C -20.3 °C 34533.8 hPa NW 53.6 km/h 53.6 km/h 50 % 0 mm 399.0 W/m2 FEW
11:34 -14.9 °C -20.6 °C 34520.3 hPa NNW 47.6 km/h 47.6 km/h 48 % 0 mm 410.0 W/m2 FEW
11:39 -14.9 °C -20.4 °C 34510.1 hPa NW 65.5 km/h 65.5 km/h 49 % 0 mm 415.0 W/m2 CLR
11:44 -15.1 °C -20.7 °C 34510.1 hPa NNW 65.5 km/h 65.5 km/h 48 % 0 mm 422.0 W/m2 CLR
11:49 -15.1 °C -20.9 °C 34510.1 hPa NNW 64.7 km/h 64.7 km/h 47 % 0 mm 427.0 W/m2 CLR
11:54 -15 °C -20.8 °C 34510.1 hPa NNW 44.7 km/h 44.7 km/h 47 % 0 mm 436.0 W/m2 CLR
11:59 -14.9 °C -20.8 °C 34520.3 hPa NNW 41.7 km/h 41.7 km/h 46 % 0 mm 438.0 W/m2 CLR
12:04 -14.9 °C -21 °C 34533.8 hPa NNW 35.7 km/h 35.7 km/h 45 % 0 mm 443.0 W/m2 CLR
12:09 -14.8 °C -20.9 °C 34520.3 hPa NNW 44.7 km/h 44.7 km/h 45 % 0 mm 448.0 W/m2 CLR
12:14 -14.8 °C -20.9 °C 34520.3 hPa NNW 62.6 km/h 62.6 km/h 45 % 0 mm 454.0 W/m2 CLR
12:19 -14.9 °C -21 °C 34520.3 hPa NNW 50.7 km/h 50.7 km/h 45 % 0 mm 457.0 W/m2 CLR
12:24 -14.9 °C -21.2 °C 34510.1 hPa NNW 56.6 km/h 56.6 km/h 44 % 0 mm 462.0 W/m2 CLR
12:29 -14.8 °C -20.9 °C 34496.6 hPa NNW 56.6 km/h 56.6 km/h 45 % 0 mm 464.0 W/m2 CLR
12:34 -14.8 °C -21.1 °C 34510.1 hPa NNW 50.7 km/h 50.7 km/h 44 % 0 mm 468.0 W/m2 CLR
12:39 -14.8 °C -21.1 °C 34510.1 hPa NNW 50.7 km/h 50.7 km/h 44 % 0 mm 471.0 W/m2 CLR
12:44 -14.8 °C -21.2 °C 34496.6 hPa NNW 53.6 km/h 53.6 km/h 43 % 0 mm 475.0 W/m2 CLR
12:49 -14.7 °C -21.2 °C 34496.6 hPa NNW 53.6 km/h 53.6 km/h 43 % 0 mm 475.0 W/m2 CLR
12:54 -14.7 °C -21.2 °C 34510.1 hPa NNW 62.6 km/h 62.6 km/h 43 % 0 mm 473.0 W/m2 CLR
12:59 -14.8 °C -21.2 °C 34510.1 hPa NNW 50.7 km/h 50.7 km/h 43 % 0 mm 476.0 W/m2 CLR
13:04 -14.7 °C -21.1 °C 34510.1 hPa NW 44.7 km/h 44.7 km/h 43 % 0 mm 475.0 W/m2 CLR
13:09 -14.6 °C -21.1 °C 34510.1 hPa NW 44.7 km/h 44.7 km/h 43 % 0 mm 476.0 W/m2 CLR
13:14 -14.5 °C -21.3 °C 34496.6 hPa NW 65.5 km/h 65.5 km/h 41 % 0 mm 480.0 W/m2 CLR
13:19 -14.6 °C -21.2 °C 34486.4 hPa NW 54.4 km/h 54.4 km/h 42 % 0 mm 478.0 W/m2 CLR
13:24 -14.6 °C -21.4 °C 34486.4 hPa NW 62.6 km/h 62.6 km/h 41 % 0 mm 478.0 W/m2 CLR
13:29 -14.6 °C -21.6 °C 34496.6 hPa NW 59.5 km/h 59.5 km/h 40 % 0 mm 476.0 W/m2 CLR
13:34 -14.5 °C -21.3 °C 34496.6 hPa NNW 44.7 km/h 44.7 km/h 41 % 0 mm 473.0 W/m2 CLR
13:39 -14.4 °C -21.4 °C 34496.6 hPa NNW 49.2 km/h 49.2 km/h 40 % 0 mm 471.0 W/m2 CLR
13:44 -14.4 °C -21.4 °C 34486.4 hPa NNW 50.7 km/h 50.7 km/h 40 % 0 mm 469.0 W/m2 CLR
13:49 -14.3 °C -21.2 °C 34476.3 hPa NW 47.6 km/h 47.6 km/h 41 % 0 mm 469.0 W/m2 CLR
13:54 -14.3 °C -21.7 °C 34486.4 hPa NW 65.5 km/h 65.5 km/h 38 % 0 mm 462.0 W/m2 CLR
13:59 -14.3 °C -21.5 °C 34486.4 hPa NW 41.7 km/h 41.7 km/h 39 % 0 mm 461.0 W/m2 CLR
14:04 -14.3 °C -21.9 °C 34486.4 hPa NW 56.6 km/h 56.6 km/h 37 % 0 mm 457.0 W/m2 CLR
14:09 -14.2 °C -21.6 °C 34476.3 hPa NW 59.5 km/h 59.5 km/h 38 % 0 mm 457.0 W/m2 CLR
14:14 -14.3 °C -21.8 °C 34476.3 hPa NW 51.8 km/h 51.8 km/h 37 % 0 mm 452.0 W/m2 CLR
14:19 -14.2 °C -21.8 °C 34462.7 hPa NW 50.7 km/h 50.7 km/h 37 % 0 mm 445.0 W/m2 CLR
14:24 -14.1 °C -21.9 °C 34462.7 hPa NW 57 km/h 57 km/h 36 % 0 mm 436.0 W/m2 CLR
14:29 -14.1 °C -22.1 °C 34462.7 hPa NW 59.5 km/h 59.5 km/h 35 % 0 mm 431.0 W/m2 CLR
14:34 -14.1 °C -22.3 °C 34462.7 hPa NNW 59.5 km/h 59.5 km/h 34 % 0 mm 424.0 W/m2 CLR
14:39 -14.1 °C -22.3 °C 34452.6 hPa NW 51.8 km/h 51.8 km/h 34 % 0 mm 420.0 W/m2 CLR
14:44 -14.1 °C -22.9 °C 34462.7 hPa NW 65.5 km/h 65.5 km/h 31 % 0 mm 418.0 W/m2 CLR
14:49 -14.2 °C -23 °C 34462.7 hPa NW 65.5 km/h 65.5 km/h 31 % 0 mm 404.0 W/m2 CLR
14:54 -14.1 °C -23 °C 34462.7 hPa NNW 59.5 km/h 59.5 km/h 31 % 0 mm 399.0 W/m2 CLR
14:59 -14 °C -22.9 °C 34462.7 hPa NW 75.2 km/h 75.2 km/h 31 % 0 mm 390.0 W/m2 CLR
15:04 -14.1 °C -23.2 °C 34462.7 hPa NW 59.5 km/h 59.5 km/h 30 % 0 mm 381.0 W/m2 CLR
15:09 -14.1 °C -23.2 °C 34462.7 hPa NW 65.5 km/h 65.5 km/h 30 % 0 mm 373.0 W/m2 CLR
15:14 -14.2 °C -23.3 °C 34462.7 hPa NW 65.5 km/h 65.5 km/h 30 % 0 mm 367.0 W/m2 CLR
15:19 -14.2 °C -23.3 °C 34462.7 hPa NW 59.5 km/h 59.5 km/h 30 % 0 mm 359.0 W/m2 CLR
15:24 -14.1 °C -23.4 °C 34462.7 hPa NW 67.3 km/h 67.3 km/h 29 % 0 mm 343.0 W/m2 CLR
15:29 -14.1 °C -23.2 °C 34462.7 hPa NW 57 km/h 57 km/h 30 % 0 mm 334.0 W/m2 CLR
15:34 -14.1 °C -23.4 °C 34462.7 hPa NW 62.6 km/h 62.6 km/h 29 % 0 mm 325.0 W/m2 CLR
15:39 -14.2 °C -23.5 °C 34462.7 hPa NNW 67.3 km/h 67.3 km/h 29 % 0 mm 316.0 W/m2 CLR
15:44 -14.1 °C -23.4 °C 34462.7 hPa NW 62.6 km/h 62.6 km/h 29 % 0 mm 304.0 W/m2 CLR
15:49 -14.2 °C -23.5 °C 34462.7 hPa NW 68.6 km/h 68.6 km/h 29 % 0 mm 294.0 W/m2 CLR
15:54 -14.2 °C -23.8 °C 34462.7 hPa NW 65.5 km/h 65.5 km/h 28 % 0 mm 281.0 W/m2 CLR
15:59 -14.2 °C -23.8 °C 34462.7 hPa NW 56.6 km/h 56.6 km/h 28 % 0 mm 269.0 W/m2 CLR
16:04 -14.2 °C -23.8 °C 34462.7 hPa WNW 50.7 km/h 50.7 km/h 28 % 0 mm 253.0 W/m2 CLR
16:09 -14.2 °C -23.8 °C 34476.3 hPa WNW 44.7 km/h 44.7 km/h 28 % 0 mm 241.0 W/m2 CLR
16:10 -14.2 °C -23.8 °C 34476.3 hPa WNW 50.7 km/h 50.7 km/h 28 % 0 mm 241.0 W/m2 CLR
16:15 -14.1 °C -23.7 °C 34462.7 hPa NW 44.7 km/h 44.7 km/h 28 % 0 mm 223.0 W/m2 CLR
16:20 -14.1 °C -24.2 °C 34462.7 hPa NW 56.6 km/h 56.6 km/h 26 % 0 mm 209.0 W/m2 CLR
16:25 -14.1 °C -24.2 °C 34476.3 hPa NNW 59.5 km/h 59.5 km/h 26 % 0 mm 193.0 W/m2 CLR
16:30 -14.2 °C -24.3 °C 34476.3 hPa NNW 53.6 km/h 53.6 km/h 26 % 0 mm 179.0 W/m2 CLR
16:35 -14.3 °C -24.7 °C 34486.4 hPa NW 68.6 km/h 68.6 km/h 25 % 0 mm 162.0 W/m2 CLR
16:40 -14.4 °C -24.8 °C 34486.4 hPa NW 54.4 km/h 54.4 km/h 25 % 0 mm 148.0 W/m2 CLR
16:45 -14.5 °C -24.6 °C 34486.4 hPa NNW 32.8 km/h 32.8 km/h 26 % 0 mm 134.0 W/m2 CLR
16:50 -14.5 °C -24.6 °C 34476.3 hPa NW 56.6 km/h 56.6 km/h 26 % 0 mm 120.0 W/m2 CLR
16:55 -14.6 °C -24.7 °C 34486.4 hPa NW 53.6 km/h 53.6 km/h 26 % 0 mm 104.0 W/m2 CLR
17:00 -14.7 °C -24.7 °C 34486.4 hPa NNW 57 km/h 57 km/h 26 % 0 mm 90.0 W/m2 CLR
17:05 -14.7 °C -24.5 °C 34486.4 hPa NW 47.6 km/h 47.6 km/h 27 % 0 mm 62.0 W/m2 CLR
17:10 -14.8 °C -24.3 °C 34486.4 hPa NW 41.7 km/h 41.7 km/h 28 % 0 mm 47.0 W/m2 CLR
17:15 -14.9 °C -24.4 °C 34486.4 hPa NNW 50.7 km/h 50.7 km/h 28 % 0 mm 49.0 W/m2 OVC
17:20 -15.1 °C -24.5 °C 34486.4 hPa NW 56.6 km/h 56.6 km/h 28 % 0 mm 39.0 W/m2 OVC
17:25 -15.2 °C -24.3 °C 34486.4 hPa NW 65.5 km/h 65.5 km/h 29 % 0 mm 30.0 W/m2 OVC
17:30 -15.2 °C -24.4 °C 34486.4 hPa NW 56.6 km/h 56.6 km/h 29 % 0 mm 21.0 W/m2 OVC
17:35 -15.3 °C -24.5 °C 34486.4 hPa NW 75.2 km/h 75.2 km/h 29 % 0 mm 16.0 W/m2 OVC
17:40 -15.4 °C -24.3 °C 34486.4 hPa NW 50.7 km/h 50.7 km/h 30 % 0 mm 12.0 W/m2 OVC
17:45 -15.5 °C -24.4 °C 34496.6 hPa NW 50.7 km/h 50.7 km/h 30 % 0 mm 11.0 W/m2 OVC
17:50 -15.6 °C -24.3 °C 34496.6 hPa NW 53.6 km/h 53.6 km/h 31 % 0 mm 9.0 W/m2 OVC
17:55 -15.7 °C -24.3 °C 34496.6 hPa NW 41.7 km/h 41.7 km/h 31 % 0 mm 7.0 W/m2 OVC
18:00 -15.7 °C -24.4 °C 34496.6 hPa NW 53.6 km/h 53.6 km/h 31 % 0 mm 0.0 W/m2 CLR
18:05 -15.8 °C -24.2 °C 34496.6 hPa NW 50.7 km/h 50.7 km/h 32 % 0 mm 0.0 W/m2 CLR
18:10 -15.9 °C -24.3 °C 34496.6 hPa NW 53.6 km/h 53.6 km/h 32 % 0 mm 0.0 W/m2 CLR
18:15 -15.9 °C -24.1 °C 34496.6 hPa NW 44.7 km/h 44.7 km/h 33 % 0 mm 0.0 W/m2 CLR
18:20 -15.9 °C -24.2 °C 34510.1 hPa NW 50.7 km/h 50.7 km/h 33 % 0 mm 0.0 W/m2 CLR
18:25 -16 °C -24 °C 34510.1 hPa NW 47.6 km/h 47.6 km/h 34 % 0 mm 0.0 W/m2 CLR
18:30 -16.1 °C -24.1 °C 34510.1 hPa NW 50.7 km/h 50.7 km/h 34 % 0 mm 0.0 W/m2 CLR
18:35 -16.2 °C -23.9 °C 34510.1 hPa NW 38.8 km/h 38.8 km/h 35 % 0 mm 0.0 W/m2 CLR
18:40 -16.2 °C -24 °C 34510.1 hPa NW 50.7 km/h 50.7 km/h 35 % 0 mm 0.0 W/m2 CLR
18:46 -16.2 °C -24 °C 34520.3 hPa NW 59.5 km/h 59.5 km/h 35 % 0 mm 0.0 W/m2 CLR
18:51 -16.3 °C -23.8 °C 34520.3 hPa NW 41.7 km/h 41.7 km/h 36 % 0 mm 0.0 W/m2 CLR
18:56 -16.3 °C -23.9 °C 34520.3 hPa NW 56.6 km/h 56.6 km/h 36 % 0 mm 0.0 W/m2 CLR
19:01 -16.4 °C -23.9 °C 34520.3 hPa NW 41.7 km/h 41.7 km/h 36 % 0 mm 0.0 W/m2 CLR
19:06 -16.4 °C -23.8 °C 34533.8 hPa NW 47.6 km/h 47.6 km/h 37 % 0 mm 0.0 W/m2 CLR
19:11 -16.5 °C -23.8 °C 34533.8 hPa NW 44.7 km/h 44.7 km/h 37 % 0 mm 0.0 W/m2 CLR
19:16 -16.5 °C -23.8 °C 34533.8 hPa NW 50.7 km/h 50.7 km/h 37 % 0 mm 0.0 W/m2 CLR
19:21 -16.5 °C -23.8 °C 34533.8 hPa NW 51.8 km/h 51.8 km/h 37 % 0 mm 0.0 W/m2 CLR
19:26 -16.5 °C -23.8 °C 34533.8 hPa NW 50.7 km/h 50.7 km/h 37 % 0 mm 0.0 W/m2 CLR
19:31 -16.6 °C -23.8 °C 34544 hPa NW 35.7 km/h 35.7 km/h 38 % 0 mm 0.0 W/m2 CLR
19:36 -16.7 °C -23.8 °C 34544 hPa NW 50.7 km/h 50.7 km/h 38 % 0 mm 0.0 W/m2 CLR
19:41 -16.7 °C -23.7 °C 34544 hPa WNW 44.7 km/h 44.7 km/h 39 % 0 mm 0.0 W/m2 CLR
19:46 -16.7 °C -23.7 °C 34544 hPa WNW 47.6 km/h 47.6 km/h 39 % 0 mm 0.0 W/m2 CLR
19:51 -16.8 °C -23.8 °C 34544 hPa NW 38.8 km/h 38.8 km/h 39 % 0 mm 0.0 W/m2 CLR
19:56 -16.9 °C -23.7 °C 34544 hPa NW 50.7 km/h 50.7 km/h 40 % 0 mm 0.0 W/m2 CLR
20:01 -16.9 °C -23.7 °C 34544 hPa NW 38.8 km/h 38.8 km/h 40 % 0 mm 0.0 W/m2 CLR
20:06 -16.9 °C -23.7 °C 34554.1 hPa WNW 47.6 km/h 47.6 km/h 40 % 0 mm 0.0 W/m2 CLR
20:11 -16.9 °C -23.7 °C 34554.1 hPa WNW 35.7 km/h 35.7 km/h 40 % 0 mm 0.0 W/m2 CLR
20:16 -17 °C -23.6 °C 34544 hPa WNW 44.1 km/h 44.1 km/h 41 % 0 mm 0.0 W/m2 CLR
20:21 -17.1 °C -23.6 °C 34554.1 hPa WNW 36.2 km/h 36.2 km/h 41 % 0 mm 0.0 W/m2 CLR
20:26 -17.1 °C -23.7 °C 34554.1 hPa WNW 41.7 km/h 41.7 km/h 41 % 0 mm 0.0 W/m2 CLR
20:31 -17.1 °C -23.5 °C 34554.1 hPa WNW 44.7 km/h 44.7 km/h 42 % 0 mm 0.0 W/m2 CLR
20:36 -17.1 °C -23.5 °C 34554.1 hPa WNW 50.7 km/h 50.7 km/h 42 % 0 mm 0.0 W/m2 CLR
20:41 -17.1 °C -23.7 °C 34554.1 hPa WNW 51.8 km/h 51.8 km/h 41 % 0 mm 0.0 W/m2 CLR
20:46 -17.1 °C -23.5 °C 34554.1 hPa WNW 41.7 km/h 41.7 km/h 42 % 0 mm 0.0 W/m2 CLR
20:51 -17.2 °C -23.6 °C 34554.1 hPa WNW 46.7 km/h 46.7 km/h 42 % 0 mm 0.0 W/m2 CLR
20:56 -17.3 °C -23.5 °C 34567.7 hPa WNW 50.7 km/h 50.7 km/h 43 % 0 mm 0.0 W/m2 CLR
21:01 -17.3 °C -23.5 °C 34567.7 hPa WNW 47.6 km/h 47.6 km/h 43 % 0 mm 0.0 W/m2 CLR
21:06 -17.3 °C -23.5 °C 34567.7 hPa WNW 38.8 km/h 38.8 km/h 43 % 0 mm 0.0 W/m2 CLR
21:11 -17.4 °C -23.4 °C 34567.7 hPa WNW 41.7 km/h 41.7 km/h 44 % 0 mm 0.0 W/m2 CLR
21:16 -17.4 °C -23.4 °C 34567.7 hPa WNW 44.7 km/h 44.7 km/h 44 % 0 mm 0.0 W/m2 CLR
21:21 -17.4 °C -23.4 °C 34567.7 hPa WNW 33.6 km/h 33.6 km/h 44 % 0 mm 0.0 W/m2 CLR
21:26 -17.4 °C -23.3 °C 34577.8 hPa WNW 41.7 km/h 41.7 km/h 45 % 0 mm 0.0 W/m2 CLR
21:31 -17.4 °C -23.3 °C 34577.8 hPa West 38.8 km/h 38.8 km/h 45 % 0 mm 0.0 W/m2 CLR
21:36 -17.4 °C -23.2 °C 34567.7 hPa West 41.4 km/h 41.4 km/h 46 % 0 mm 0.0 W/m2 CLR
21:41 -17.4 °C -23.2 °C 34567.7 hPa WNW 44.7 km/h 44.7 km/h 46 % 0 mm 0.0 W/m2 CLR
21:46 -17.4 °C -23.2 °C 34577.8 hPa West 50.7 km/h 50.7 km/h 46 % 0 mm 0.0 W/m2 CLR
21:51 -17.4 °C -23.1 °C 34577.8 hPa West 32.8 km/h 32.8 km/h 47 % 0 mm 0.0 W/m2 CLR
21:56 -17.5 °C -22.9 °C 34577.8 hPa West 41.7 km/h 41.7 km/h 48 % 0 mm 0.0 W/m2 CLR
22:01 -17.6 °C -22.9 °C 34577.8 hPa West 32.8 km/h 32.8 km/h 48 % 0 mm 0.0 W/m2 CLR
22:06 -17.6 °C -22.8 °C 34577.8 hPa West 35.7 km/h 35.7 km/h 49 % 0 mm 0.0 W/m2 CLR
22:11 -17.6 °C -22.7 °C 34577.8 hPa West 41.7 km/h 41.7 km/h 50 % 0 mm 0.0 W/m2 CLR
22:16 -17.6 °C -22.7 °C 34591.4 hPa West 33.6 km/h 33.6 km/h 50 % 0 mm 0.0 W/m2 CLR
22:21 -17.7 °C -22.6 °C 34591.4 hPa West 31.1 km/h 31.1 km/h 51 % 0 mm 0.0 W/m2 CLR
22:26 -17.7 °C -22.6 °C 34591.4 hPa West 32.8 km/h 32.8 km/h 52 % 0 mm 0.0 W/m2 CLR
22:31 -17.7 °C -22.6 °C 34591.4 hPa West 26.9 km/h 26.9 km/h 52 % 0 mm 0.0 W/m2 CLR
22:36 -17.8 °C -22.3 °C 34591.4 hPa WSW 32.8 km/h 32.8 km/h 54 % 0 mm 0.0 W/m2 CLR
22:41 -17.8 °C -22.4 °C 34601.5 hPa WSW 29.8 km/h 29.8 km/h 54 % 0 mm 0.0 W/m2 CLR
22:46 -17.8 °C -22.3 °C 34601.5 hPa WSW 33.6 km/h 33.6 km/h 55 % 0 mm 0.0 W/m2 CLR
22:51 -17.8 °C -22.2 °C 34601.5 hPa WSW 29.8 km/h 29.8 km/h 55 % 0 mm 0.0 W/m2 CLR
22:56 -17.8 °C -22.1 °C 34601.5 hPa West 41.7 km/h 41.7 km/h 56 % 0 mm 0.0 W/m2 CLR
23:01 -17.8 °C -22.1 °C 34601.5 hPa WSW 29.8 km/h 29.8 km/h 56 % 0 mm 0.0 W/m2 CLR
23:07 -17.8 °C -22.1 °C 34601.5 hPa West 41.7 km/h 41.7 km/h 56 % 0 mm 0.0 W/m2 CLR
23:12 -17.8 °C -22 °C 34601.5 hPa West 31.1 km/h 31.1 km/h 57 % 0 mm 0.0 W/m2 CLR
23:17 -17.8 °C -22 °C 34601.5 hPa West 29.8 km/h 29.8 km/h 57 % 0 mm 0.0 W/m2 CLR
23:22 -17.9 °C -22.1 °C 34601.5 hPa WSW 33.6 km/h 33.6 km/h 57 % 0 mm 0.0 W/m2 CLR
23:27 -17.9 °C -22.1 °C 34601.5 hPa WSW 29.8 km/h 29.8 km/h 57 % 0 mm 0.0 W/m2 CLR
23:32 -17.9 °C -22.1 °C 34601.5 hPa WSW 29.8 km/h 29.8 km/h 57 % 0 mm 0.0 W/m2 CLR
23:37 -17.9 °C -21.9 °C 34611.7 hPa West 35.7 km/h 35.7 km/h 58 % 0 mm 0.0 W/m2 CLR
23:42 -17.9 °C -22.1 °C 34611.7 hPa West 29.8 km/h 29.8 km/h 57 % 0 mm 0.0 W/m2 CLR
23:47 -17.9 °C -21.9 °C 34601.5 hPa West 36.2 km/h 36.2 km/h 58 % 0 mm 0.0 W/m2 CLR
23:52 -17.9 °C -22.1 °C 34611.7 hPa West 35.7 km/h 35.7 km/h 57 % 0 mm 0.0 W/m2 CLR
23:57 -17.9 °C -22.1 °C 34611.7 hPa West 32.8 km/h 32.8 km/h 57 % 0 mm 0.0 W/m2 CLR
Lo Temps de Massalio
Compliments of Weather Underground - 1.25 mb